createdAt,value
2018-11-20T00:09:16.831Z,53.90
2018-11-20T00:19:54.884Z,54.00
2018-11-20T00:30:26.015Z,54.20
2018-11-20T00:40:49.239Z,54.20
2018-11-20T00:51:06.926Z,54.30
2018-11-20T01:01:28.727Z,54.20
2018-11-20T01:11:54.828Z,54.80
2018-11-20T01:22:16.396Z,54.00
2018-11-20T01:32:42.258Z,54.10
2018-11-20T01:43:03.875Z,54.00
2018-11-20T01:53:25.658Z,54.20
2018-11-20T02:03:47.525Z,54.20
2018-11-20T02:14:24.181Z,54.20
2018-11-20T02:24:47.433Z,53.80
2018-11-20T02:35:10.573Z,54.60
2018-11-20T02:45:45.805Z,54.50
2018-11-20T02:55:59.950Z,54.60
2018-11-20T03:06:41.214Z,54.80
2018-11-20T03:16:53.649Z,54.70
2018-11-20T03:27:19.571Z,54.80
2018-11-20T03:37:48.742Z,54.80
2018-11-20T03:48:20.791Z,55.00
2018-11-20T03:58:58.880Z,54.90
2018-11-20T04:09:12.740Z,55.00
2018-11-20T04:19:34.425Z,55.30
2018-11-20T04:29:48.405Z,55.40
2018-11-20T04:39:59.853Z,55.60
2018-11-20T04:50:26.220Z,55.70
2018-11-20T05:00:58.503Z,55.50
2018-11-20T05:11:27.710Z,55.60
2018-11-20T05:21:49.687Z,55.60
2018-11-20T05:32:06.184Z,55.50
2018-11-20T05:42:27.731Z,55.50
2018-11-20T05:52:46.187Z,55.60
2018-11-20T06:03:03.361Z,55.40
2018-11-20T06:13:15.345Z,55.40
2018-11-20T06:23:26.844Z,55.40
2018-11-20T06:33:40.783Z,55.50
2018-11-20T06:44:04.905Z,55.40
2018-11-20T06:54:28.147Z,55.20
2018-11-20T07:04:46.077Z,55.30
2018-11-20T07:15:07.848Z,55.40
2018-11-20T07:25:31.040Z,55.30
2018-11-20T07:35:57.318Z,55.40
2018-11-20T07:46:32.544Z,55.50
2018-11-20T07:56:54.140Z,55.70
2018-11-20T08:07:16.895Z,55.60
2018-11-20T08:17:43.000Z,55.50
2018-11-20T08:28:09.059Z,55.70
2018-11-20T08:38:29.300Z,55.70
2018-11-20T08:49:07.403Z,55.80
2018-11-20T08:59:20.925Z,55.90
2018-11-20T09:09:56.814Z,55.80
2018-11-20T09:20:22.983Z,56.00
2018-11-20T09:30:44.592Z,56.00
2018-11-20T09:41:09.227Z,55.80
2018-11-20T09:51:23.629Z,56.00
2018-11-20T10:01:49.154Z,56.30
2018-11-20T10:12:10.708Z,56.10
2018-11-20T10:22:41.874Z,56.70
2018-11-20T10:33:10.955Z,58.60
2018-11-20T10:43:39.897Z,60.10
2018-11-20T10:54:06.122Z,61.60
2018-11-20T11:04:29.859Z,63.00
2018-11-20T11:14:51.943Z,64.00
2018-11-20T11:25:10.654Z,65.60
2018-11-20T11:35:33.877Z,65.40
2018-11-20T11:45:59.730Z,66.10
2018-11-20T11:56:31.728Z,66.30
2018-11-20T12:06:57.529Z,66.70
2018-11-20T12:17:23.356Z,66.50
2018-11-20T12:28:04.880Z,67.30
2018-11-20T12:38:25.863Z,67.10
2018-11-20T12:48:45.620Z,67.30
2018-11-20T12:59:26.826Z,67.40
2018-11-20T13:09:52.820Z,67.40
2018-11-20T13:20:11.118Z,66.70
2018-11-20T13:30:43.532Z,67.50
2018-11-20T13:41:41.703Z,67.10
2018-11-20T13:51:58.760Z,67.00
2018-11-20T14:02:25.977Z,67.00
2018-11-20T14:13:00.011Z,66.80
2018-11-20T14:24:07.247Z,67.50
2018-11-20T14:34:19.493Z,66.80
2018-11-20T14:44:41.983Z,67.60
2018-11-20T14:55:03.578Z,67.60
2018-11-20T15:05:25.067Z,67.70
2018-11-20T15:15:47.500Z,67.20
2018-11-20T15:26:06.933Z,67.90
2018-11-20T15:36:29.378Z,67.70
2018-11-20T15:46:51.803Z,67.70
2018-11-20T15:57:23.094Z,67.70
2018-11-20T16:07:42.436Z,67.60
2018-11-20T16:18:03.395Z,67.50
2018-11-20T16:28:25.796Z,66.80
2018-11-20T16:38:47.885Z,67.50
2018-11-20T16:49:07.003Z,66.80
2018-11-20T16:59:28.039Z,67.30
2018-11-20T17:09:45.564Z,67.20
2018-11-20T17:20:17.089Z,67.00
2018-11-20T17:30:42.198Z,67.00
2018-11-20T17:41:09.192Z,66.80
2018-11-20T17:51:29.111Z,66.50
2018-11-20T18:01:54.278Z,66.60
2018-11-20T18:12:22.829Z,65.90
2018-11-20T18:23:00.634Z,66.70
2018-11-20T18:33:21.205Z,66.40
2018-11-20T18:43:49.254Z,66.40
2018-11-20T18:54:11.693Z,65.50
2018-11-20T19:04:32.768Z,66.20
2018-11-20T19:14:55.324Z,66.20
2018-11-20T19:25:17.839Z,66.10
2018-11-20T19:35:39.135Z,65.60
2018-11-20T19:45:55.781Z,65.80
2018-11-20T19:56:18.208Z,65.60
2018-11-20T20:06:39.202Z,65.50
2018-11-20T20:17:00.187Z,65.50
2018-11-20T20:27:21.266Z,65.00
2018-11-20T20:37:49.213Z,64.90
2018-11-20T20:48:02.964Z,64.90
2018-11-20T20:58:18.709Z,66.50
2018-11-20T21:08:39.720Z,65.30
2018-11-20T21:18:54.989Z,66.20
2018-11-20T21:29:21.500Z,66.40
2018-11-20T21:39:38.219Z,66.70
2018-11-20T21:50:00.681Z,66.80
2018-11-20T22:00:33.873Z,66.50
2018-11-20T22:10:56.295Z,67.00
2018-11-20T22:21:25.619Z,66.40
2018-11-20T22:31:46.695Z,67.00
2018-11-20T22:42:11.870Z,66.60
2018-11-20T22:52:32.935Z,67.00
2018-11-20T23:02:58.844Z,67.10
2018-11-20T23:13:02.096Z,67.70
2018-11-20T23:23:05.360Z,67.20
2018-11-20T23:33:08.628Z,67.40
2018-11-20T23:43:11.861Z,67.70
2018-11-20T23:53:15.068Z,68.00
